Time;durP1;ratioP1;P1;durP2;ratioP2;P2;SDS_P1;SDS_P2;PMS_P1;PMS_P2;Temp;Humidity;BMP_temperature;BMP_pressure;BME280_temperature;BME280_humidity;BME280_pressure;Samples;Min_cycle;Max_cycle;Signal;HPM_P1;HPM_P2
2023/09/21 00:01:23;;;;;;;2.80;2.58;;;17.10;74.50;;;;;;930849;152;27436;-75
2023/09/21 00:03:48;;;;;;;3.42;2.60;;;17.10;74.70;;;;;;931513;151;27382;-75
2023/09/21 00:06:15;;;;;;;3.50;2.67;;;17.00;74.80;;;;;;933395;149;27436;-75
2023/09/21 00:08:41;;;;;;;3.15;2.70;;;17.00;75.00;;;;;;925466;150;27746;-75
2023/09/21 00:11:09;;;;;;;2.60;2.40;;;17.00;75.20;;;;;;945984;149;27346;-75
2023/09/21 00:13:39;;;;;;;2.98;2.50;;;16.90;75.30;;;;;;928395;152;27362;-75
2023/09/21 00:16:01;;;;;;;2.55;2.22;;;16.90;75.50;;;;;;934874;149;27770;-75
2023/09/21 00:18:29;;;;;;;2.95;2.65;;;16.80;75.60;;;;;;927159;152;27318;-75
2023/09/21 00:20:54;;;;;;;3.35;3.05;;;16.80;75.80;;;;;;933734;152;27369;-75
2023/09/21 00:23:27;;;;;;;3.55;2.67;;;16.80;76.00;;;;;;935744;151;27357;-75
2023/09/21 00:26:00;;;;;;;4.30;2.95;;;16.70;76.10;;;;;;933050;151;27450;-75
2023/09/21 00:28:27;;;;;;;2.40;2.20;;;16.70;76.30;;;;;;933943;152;27354;-75
2023/09/21 00:30:53;;;;;;;2.62;2.42;;;16.70;76.40;;;;;;935226;152;27371;-75
2023/09/21 00:33:19;;;;;;;2.75;2.47;;;16.60;77.50;;;;;;933897;151;27475;-75
2023/09/21 00:35:46;;;;;;;3.27;2.83;;;16.60;76.90;;;;;;932842;150;27388;-75
2023/09/21 00:38:15;;;;;;;2.60;2.40;;;16.50;77.10;;;;;;934320;151;27459;-75
2023/09/21 00:40:44;;;;;;;2.90;2.62;;;16.50;77.30;;;;;;934014;152;27852;-75
2023/09/21 00:43:12;;;;;;;2.65;2.42;;;16.50;77.60;;;;;;935178;152;27370;-75
2023/09/21 00:45:38;;;;;;;3.22;2.70;;;16.50;77.80;;;;;;930668;152;27338;-75
2023/09/21 00:48:07;;;;;;;2.75;2.55;;;16.50;78.20;;;;;;932704;152;27452;-75
2023/09/21 00:50:31;;;;;;;3.12;2.70;;;16.40;78.30;;;;;;941334;150;27410;-75
2023/09/21 00:52:57;;;;;;;3.80;2.72;;;16.40;78.60;;;;;;946292;150;28136;-75
2023/09/21 00:55:30;;;;;;;2.70;2.45;;;16.40;78.90;;;;;;947445;150;27473;-75
2023/09/21 00:57:59;;;;;;;3.05;2.77;;;16.40;79.00;;;;;;941408;149;27331;-75
2023/09/21 01:00:30;;;;;;;3.67;2.72;;;16.40;79.20;;;;;;929255;151;27842;-75
2023/09/21 01:03:00;;;;;;;2.92;2.58;;;16.40;79.40;;;;;;924875;151;27360;-75
2023/09/21 01:05:22;;;;;;;3.20;2.90;;;16.40;79.80;;;;;;940734;150;27345;-75
2023/09/21 01:07:48;;;;;;;3.55;2.60;;;16.30;79.80;;;;;;927658;151;27338;-75
2023/09/21 01:10:19;;;;;;;3.17;2.70;;;16.30;80.00;;;;;;930804;151;27434;-75
2023/09/21 01:12:48;;;;;;;3.35;2.77;;;16.30;80.30;;;;;;947263;149;27446;-75
2023/09/21 01:15:13;;;;;;;3.58;2.55;;;16.30;80.60;;;;;;925712;152;27460;-75
2023/09/21 01:17:41;;;;;;;3.25;2.60;;;16.30;80.90;;;;;;930162;151;28205;-75
2023/09/21 01:20:13;;;;;;;3.00;2.77;;;16.30;81.20;;;;;;929110;151;27365;-75
2023/09/21 01:22:31;;;;;;;2.85;2.65;;;16.20;81.30;;;;;;936616;149;27459;-75
2023/09/21 01:24:57;;;;;;;3.30;2.62;;;16.30;81.70;;;;;;921770;152;27662;-75
2023/09/21 01:27:24;;;;;;;2.90;2.58;;;16.20;81.80;;;;;;926193;151;27477;-75
2023/09/21 01:29:50;;;;;;;2.75;2.33;;;16.20;82.10;;;;;;930862;151;27403;-75
2023/09/21 01:32:20;;;;;;;3.70;2.67;;;16.20;82.50;;;;;;946788;149;27321;-75
2023/09/21 01:34:46;;;;;;;4.30;2.47;;;16.20;82.70;;;;;;924037;152;27366;-75
2023/09/21 01:37:10;;;;;;;3.27;2.75;;;16.20;82.90;;;;;;926235;152;28047;-75
2023/09/21 01:39:37;;;;;;;2.72;2.52;;;16.10;83.30;;;;;;940633;149;27680;-75
2023/09/21 01:42:03;;;;;;;3.00;2.62;;;16.10;83.60;;;;;;946115;149;27262;-75
2023/09/21 01:44:30;;;;;;;3.08;2.40;;;16.10;84.00;;;;;;946194;149;27386;-75
2023/09/21 01:46:57;;;;;;;3.50;2.67;;;16.00;84.40;;;;;;941112;149;27325;-73
2023/09/21 01:49:23;;;;;;;2.92;2.72;;;16.00;84.70;;;;;;942483;150;27383;-75
2023/09/21 01:51:52;;;;;;;2.85;2.55;;;16.00;85.80;;;;;;930913;151;27326;-73
2023/09/21 01:54:17;;;;;;;4.55;2.40;;;16.00;85.50;;;;;;920591;150;27363;-76
2023/09/21 01:56:43;;;;;;;3.30;2.40;;;16.00;85.90;;;;;;930163;151;27439;-74
2023/09/21 01:59:10;;;;;;;2.42;2.30;;;16.00;86.20;;;;;;924708;151;27366;-73
2023/09/21 02:01:36;;;;;;;2.50;2.30;;;15.90;86.70;;;;;;939644;149;27769;-73
2023/09/21 02:04:04;;;;;;;3.02;2.72;;;15.90;87.10;;;;;;944718;149;27477;-74
2023/09/21 02:06:29;;;;;;;3.10;2.80;;;15.90;87.60;;;;;;935486;149;27450;-73
2023/09/21 02:08:57;;;;;;;2.77;2.50;;;15.90;88.00;;;;;;950280;146;27925;-73
2023/09/21 02:11:22;;;;;;;5.62;2.80;;;15.90;88.40;;;;;;927797;150;27252;-75
2023/09/21 02:13:49;;;;;;;2.70;2.50;;;15.80;88.70;;;;;;953535;146;27327;-74
2023/09/21 02:16:16;;;;;;;2.72;2.52;;;15.80;89.20;;;;;;942081;149;27335;-75
2023/09/21 02:18:43;;;;;;;2.10;2.00;;;15.80;89.80;;;;;;939232;148;27375;-73
2023/09/21 02:21:11;;;;;;;3.25;2.47;;;15.80;90.10;;;;;;937559;149;27391;-73
2023/09/21 02:23:37;;;;;;;2.80;2.60;;;15.80;90.30;;;;;;938384;149;27359;-73
2023/09/21 02:26:02;;;;;;;2.58;2.20;;;15.80;90.50;;;;;;939030;149;27295;-75
2023/09/21 02:28:28;;;;;;;2.83;2.37;;;15.80;90.70;;;;;;940000;149;27450;-73
2023/09/21 02:30:55;;;;;;;3.15;2.90;;;15.80;90.80;;;;;;935165;149;27352;-74
2023/09/21 02:33:22;;;;;;;2.80;2.47;;;15.80;91.00;;;;;;953062;146;27304;-73
2023/09/21 02:35:49;;;;;;;3.20;2.67;;;15.80;91.20;;;;;;948661;148;27404;-74
2023/09/21 02:38:16;;;;;;;3.42;2.62;;;15.80;91.40;;;;;;958919;146;27725;-74
2023/09/21 02:40:45;;;;;;;3.00;2.70;;;15.80;91.50;;;;;;941184;149;27357;-73
2023/09/21 02:43:08;;;;;;;2.72;2.52;;;15.80;91.70;;;;;;950300;146;27316;-73
2023/09/21 02:45:36;;;;;;;3.00;2.60;;;15.80;91.90;;;;;;939379;149;27300;-73
2023/09/21 02:48:02;;;;;;;2.87;2.67;;;15.80;92.00;;;;;;955941;146;27475;-76
2023/09/21 02:50:28;;;;;;;2.70;2.50;;;15.80;92.10;;;;;;956255;146;27347;-74
2023/09/21 02:52:57;;;;;;;2.45;2.25;;;15.80;92.20;;;;;;953182;146;27412;-73
2023/09/21 02:55:24;;;;;;;4.05;2.50;;;15.80;92.40;;;;;;954908;147;27332;-76
2023/09/21 02:58:06;;;;;;;3.17;2.47;;;15.80;92.50;;;;;;927782;150;27319;-75
2023/09/21 03:03:06;;;;;;;2.60;2.40;;;15.70;92.50;;;;;;942868;149;27929;-75
2023/09/21 03:05:33;;;;;;;2.92;2.55;;;15.70;92.70;;;;;;943916;149;27356;-75
2023/09/21 03:07:57;;;;;;;3.85;2.37;;;15.70;92.90;;;;;;934222;150;27868;-75
2023/09/21 03:10:26;;;;;;;3.02;2.70;;;15.60;92.90;;;;;;944680;146;27355;-75
2023/09/21 03:12:53;;;;;;;3.12;2.55;;;15.60;93.20;;;;;;933701;150;27466;-75
2023/09/21 03:15:22;;;;;;;3.25;2.90;;;15.60;93.30;;;;;;950146;147;27320;-75
2023/09/21 03:17:46;;;;;;;2.90;2.70;;;15.50;93.60;;;;;;943629;147;27435;-75
2023/09/21 03:20:12;;;;;;;2.72;2.40;;;15.50;93.80;;;;;;932953;149;27257;-75
2023/09/21 03:22:42;;;;;;;2.85;2.65;;;15.50;94.10;;;;;;928407;150;27396;-75
2023/09/21 03:25:11;;;;;;;4.00;2.08;;;15.40;94.30;;;;;;942802;149;27471;-75
2023/09/21 03:27:39;;;;;;;3.33;2.75;;;15.40;94.70;;;;;;941590;149;27391;-75
2023/09/21 03:30:05;;;;;;;3.35;2.83;;;15.40;95.10;;;;;;942903;149;27271;-75
2023/09/21 03:32:31;;;;;;;2.70;2.50;;;15.40;95.50;;;;;;945345;146;27255;-75
2023/09/21 03:34:58;;;;;;;3.00;2.42;;;15.40;95.70;;;;;;946387;146;27323;-75
2023/09/21 03:37:26;;;;;;;2.47;2.27;;;15.40;96.00;;;;;;946057;146;27411;-75
2023/09/21 03:39:51;;;;;;;2.85;2.65;;;15.40;96.30;;;;;;925971;150;27439;-75
2023/09/21 03:42:18;;;;;;;3.25;2.95;;;15.40;96.50;;;;;;933446;149;27484;-75
2023/09/21 03:44:44;;;;;;;2.95;2.65;;;15.50;96.80;;;;;;933188;149;27419;-75
2023/09/21 03:47:11;;;;;;;3.10;2.90;;;15.50;97.10;;;;;;933678;150;27376;-75
2023/09/21 03:49:37;;;;;;;2.95;2.40;;;15.60;97.30;;;;;;951430;147;27767;-75
2023/09/21 03:52:04;;;;;;;2.50;2.30;;;15.70;97.50;;;;;;952340;147;27382;-75
2023/09/21 03:54:30;;;;;;;4.05;2.62;;;15.70;97.70;;;;;;943276;149;27337;-75
2023/09/21 03:56:57;;;;;;;2.80;2.60;;;15.70;97.80;;;;;;951411;147;27941;-75
2023/09/21 03:59:24;;;;;;;2.30;2.20;;;15.80;98.00;;;;;;938725;149;27362;-75
2023/09/21 04:01:50;;;;;;;2.92;2.50;;;15.90;98.10;;;;;;944880;147;27341;-75
2023/09/21 04:04:18;;;;;;;2.95;2.70;;;16.00;98.20;;;;;;946853;146;27433;-75
2023/09/21 04:06:43;;;;;;;2.65;2.45;;;16.10;98.20;;;;;;946349;146;27291;-75
2023/09/21 04:09:10;;;;;;;2.90;2.70;;;16.20;98.30;;;;;;947623;146;27496;-75
2023/09/21 04:11:36;;;;;;;3.10;2.33;;;16.20;98.20;;;;;;945681;146;27302;-75
2023/09/21 04:14:04;;;;;;;2.65;2.45;;;16.30;98.20;;;;;;946301;146;27371;-75
2023/09/21 04:16:30;;;;;;;2.75;2.40;;;16.40;98.20;;;;;;947666;146;27275;-75
2023/09/21 04:18:57;;;;;;;3.17;2.87;;;16.50;98.10;;;;;;926806;150;27332;-75
2023/09/21 04:21:23;;;;;;;2.72;2.52;;;16.50;98.00;;;;;;934931;150;27464;-75
2023/09/21 04:23:49;;;;;;;3.37;2.70;;;16.60;98.00;;;;;;932778;150;27319;-75
2023/09/21 04:26:16;;;;;;;3.10;2.80;;;16.70;97.80;;;;;;931932;150;27445;-75
2023/09/21 04:28:43;;;;;;;4.00;2.33;;;16.70;97.70;;;;;;935475;149;27327;-75
2023/09/21 04:31:09;;;;;;;2.72;2.42;;;16.80;97.60;;;;;;936797;149;27352;-75
2023/09/21 04:33:36;;;;;;;2.47;2.27;;;16.90;97.50;;;;;;946777;147;27918;-75
2023/09/21 04:36:02;;;;;;;2.52;2.25;;;17.00;97.40;;;;;;926702;150;27365;-75
2023/09/21 04:38:29;;;;;;;2.67;2.47;;;17.00;97.30;;;;;;931566;149;27349;-75
2023/09/21 04:40:56;;;;;;;2.87;2.58;;;17.10;97.30;;;;;;935397;149;27362;-75
2023/09/21 04:43:22;;;;;;;2.45;2.25;;;17.10;97.20;;;;;;933363;149;27454;-75
2023/09/21 04:45:49;;;;;;;2.50;2.30;;;17.20;97.20;;;;;;945678;147;27312;-75
2023/09/21 04:48:15;;;;;;;2.98;2.15;;;17.20;97.10;;;;;;951952;147;27311;-75
2023/09/21 04:50:43;;;;;;;3.02;2.30;;;17.30;97.10;;;;;;944148;147;27254;-75
2023/09/21 04:53:09;;;;;;;3.17;2.50;;;17.30;97.00;;;;;;945274;146;27468;-75
2023/09/21 04:55:36;;;;;;;2.50;2.30;;;17.40;97.00;;;;;;933241;149;28198;-75
2023/09/21 04:58:02;;;;;;;3.42;2.45;;;17.40;96.90;;;;;;933376;149;27267;-75
2023/09/21 05:00:29;;;;;;;3.02;2.80;;;17.50;96.90;;;;;;932932;149;27525;-75
2023/09/21 05:02:55;;;;;;;2.30;2.10;;;17.60;97.00;;;;;;940664;148;27422;-75
2023/09/21 05:05:26;;;;;;;2.87;2.40;;;17.70;96.80;;;;;;934211;151;28053;-75
2023/09/21 05:07:48;;;;;;;2.02;1.92;;;17.70;96.80;;;;;;933764;150;27412;-75
2023/09/21 05:10:15;;;;;;;3.65;2.37;;;17.80;96.70;;;;;;932848;151;27349;-75
2023/09/21 05:12:41;;;;;;;4.65;2.45;;;17.80;96.50;;;;;;934559;151;27365;-75
2023/09/21 05:15:08;;;;;;;2.02;1.92;;;17.90;96.50;;;;;;933238;152;27387;-75
2023/09/21 05:17:36;;;;;;;2.27;2.02;;;18.00;96.30;;;;;;934162;149;27948;-75
2023/09/21 05:20:01;;;;;;;4.00;1.90;;;18.10;96.20;;;;;;934080;152;27304;-75
2023/09/21 05:22:28;;;;;;;2.12;1.90;;;18.10;95.90;;;;;;934337;151;27267;-75
2023/09/21 05:24:54;;;;;;;2.20;2.10;;;18.20;95.60;;;;;;934672;149;27440;-75
2023/09/21 05:27:21;;;;;;;2.22;2.00;;;18.30;95.30;;;;;;934260;149;27368;-75
2023/09/21 05:29:47;;;;;;;2.50;2.30;;;18.40;95.10;;;;;;934657;152;27793;-75
2023/09/21 05:32:14;;;;;;;2.30;2.08;;;18.40;95.00;;;;;;936179;152;27266;-75
2023/09/21 05:34:41;;;;;;;2.00;1.80;;;18.50;94.90;;;;;;936107;152;27480;-75
2023/09/21 05:37:07;;;;;;;2.25;1.95;;;18.60;94.70;;;;;;934993;149;27444;-75
2023/09/21 05:39:34;;;;;;;2.65;2.42;;;18.70;94.60;;;;;;937206;151;27259;-75
2023/09/21 05:42:00;;;;;;;2.52;2.20;;;18.70;94.50;;;;;;932798;152;27376;-75
2023/09/21 05:44:28;;;;;;;3.02;2.02;;;18.80;94.40;;;;;;934154;152;27342;-75
2023/09/21 05:46:54;;;;;;;2.02;1.82;;;18.90;94.10;;;;;;934183;149;27335;-75
2023/09/21 05:49:23;;;;;;;2.98;2.20;;;18.90;93.80;;;;;;933073;152;27307;-75
2023/09/21 05:51:52;;;;;;;2.30;2.10;;;18.90;93.70;;;;;;934595;152;27366;-75
2023/09/21 05:54:19;;;;;;;4.05;2.33;;;19.00;93.50;;;;;;933323;151;27390;-75
2023/09/21 05:56:43;;;;;;;2.45;2.25;;;19.10;93.40;;;;;;932892;151;27464;-75
2023/09/21 05:59:09;;;;;;;2.27;1.82;;;19.10;93.30;;;;;;933232;150;27481;-75
2023/09/21 06:01:36;;;;;;;4.55;2.45;;;19.20;93.20;;;;;;934128;151;27637;-75
2023/09/21 06:04:03;;;;;;;4.95;2.47;;;19.20;93.00;;;;;;928970;151;27493;-75
2023/09/21 06:06:30;;;;;;;3.35;2.15;;;19.30;92.90;;;;;;926447;153;27463;-75
2023/09/21 06:08:56;;;;;;;4.42;2.40;;;19.30;92.50;;;;;;928767;152;27382;-75
2023/09/21 06:11:23;;;;;;;6.62;2.72;;;19.40;92.40;;;;;;931635;151;27248;-75
2023/09/21 06:13:49;;;;;;;2.62;2.42;;;19.40;92.30;;;;;;925180;151;27410;-75
2023/09/21 06:16:15;;;;;;;2.98;2.17;;;19.50;92.20;;;;;;927939;150;27703;-75
2023/09/21 06:18:43;;;;;;;3.15;2.47;;;19.50;91.90;;;;;;935000;151;27385;-75
2023/09/21 06:21:09;;;;;;;4.05;2.50;;;19.60;91.80;;;;;;929674;150;27362;-75
2023/09/21 06:23:35;;;;;;;3.22;2.27;;;19.60;91.70;;;;;;931448;150;27335;-75
2023/09/21 06:26:03;;;;;;;2.47;2.27;;;19.60;91.70;;;;;;930480;150;27424;-74
2023/09/21 06:28:28;;;;;;;6.37;2.45;;;19.70;91.50;;;;;;928772;150;27384;-76
2023/09/21 06:30:55;;;;;;;2.58;2.12;;;19.80;91.50;;;;;;929956;150;27480;-75
2023/09/21 06:33:24;;;;;;;4.47;2.60;;;19.80;91.40;;;;;;930757;150;27328;-73
2023/09/21 06:35:48;;;;;;;3.05;2.17;;;19.90;91.50;;;;;;925140;150;27452;-74
2023/09/21 06:38:15;;;;;;;3.02;2.33;;;19.90;91.60;;;;;;933070;150;27357;-76
2023/09/21 06:40:41;;;;;;;2.70;2.30;;;20.00;91.80;;;;;;927011;152;27371;-73
2023/09/21 06:43:08;;;;;;;2.27;2.08;;;20.10;91.80;;;;;;940416;150;27760;-73
2023/09/21 06:45:35;;;;;;;2.87;2.30;;;20.20;91.70;;;;;;924502;149;27396;-73
2023/09/21 06:48:01;;;;;;;2.55;2.33;;;20.30;91.50;;;;;;942431;148;27374;-76
2023/09/21 06:50:28;;;;;;;2.30;2.10;;;20.50;91.40;;;;;;932999;151;27400;-74
2023/09/21 06:52:54;;;;;;;2.55;2.17;;;20.60;90.90;;;;;;935373;151;28354;-74
2023/09/21 06:55:21;;;;;;;3.22;2.20;;;20.70;90.70;;;;;;935732;151;27268;-73
2023/09/21 06:57:48;;;;;;;2.37;1.80;;;20.80;90.30;;;;;;929102;150;27362;-74
2023/09/21 07:00:14;;;;;;;7.03;3.42;;;20.90;89.80;;;;;;933507;150;27379;-76
2023/09/21 07:02:41;;;;;;;2.08;1.92;;;20.90;88.90;;;;;;928497;150;27443;-73
2023/09/21 07:05:07;;;;;;;3.25;2.10;;;21.00;88.20;;;;;;930781;150;27436;-73
2023/09/21 07:07:34;;;;;;;1.85;1.72;;;21.00;87.30;;;;;;932059;150;27350;-72
2023/09/21 07:10:01;;;;;;;2.30;2.10;;;21.00;86.80;;;;;;933931;150;27512;-74
2023/09/21 07:12:27;;;;;;;3.47;2.12;;;21.10;86.70;;;;;;931213;150;27408;-73
2023/09/21 07:14:54;;;;;;;2.75;2.27;;;21.10;86.40;;;;;;929493;151;27356;-73
2023/09/21 07:17:22;;;;;;;3.37;2.37;;;21.10;86.20;;;;;;928555;150;27383;-73
2023/09/21 07:19:47;;;;;;;2.65;2.40;;;21.10;86.80;;;;;;929838;150;27370;-74
2023/09/21 07:22:13;;;;;;;2.58;2.37;;;21.20;86.80;;;;;;927921;151;27466;-75
2023/09/21 07:24:40;;;;;;;2.50;2.27;;;21.20;86.70;;;;;;926272;151;27380;-73
2023/09/21 07:27:07;;;;;;;2.50;2.30;;;21.20;86.50;;;;;;920089;151;27400;-73
2023/09/21 07:29:33;;;;;;;3.33;2.00;;;21.20;86.80;;;;;;945054;148;27327;-73
2023/09/21 07:32:00;;;;;;;3.77;2.30;;;21.20;87.80;;;;;;934118;151;27303;-76
2023/09/21 07:34:27;;;;;;;2.83;1.95;;;21.20;87.00;;;;;;924331;148;27336;-74
2023/09/21 07:36:53;;;;;;;2.25;2.05;;;21.10;86.90;;;;;;925083;150;27480;-75
2023/09/21 07:39:20;;;;;;;3.67;2.20;;;21.10;87.20;;;;;;928040;148;27723;-75
2023/09/21 07:41:46;;;;;;;3.33;2.05;;;21.10;87.50;;;;;;927711;151;27436;-75
2023/09/21 07:44:14;;;;;;;2.50;2.30;;;21.00;87.70;;;;;;935333;150;27376;-75
2023/09/21 07:46:39;;;;;;;2.25;2.15;;;21.00;88.20;;;;;;937561;149;27323;-75
2023/09/21 07:49:06;;;;;;;3.58;2.20;;;21.00;88.50;;;;;;933857;151;27321;-75
2023/09/21 07:51:33;;;;;;;2.83;2.52;;;21.00;89.30;;;;;;941229;148;27293;-75
2023/09/21 07:54:00;;;;;;;6.67;2.75;;;21.00;89.70;;;;;;933050;149;27372;-75
2023/09/21 07:56:26;;;;;;;5.62;2.55;;;21.00;90.00;;;;;;948126;148;27304;-75
2023/09/21 07:58:52;;;;;;;2.83;2.27;;;21.00;89.90;;;;;;931437;148;27276;-75
2023/09/21 08:01:19;;;;;;;4.42;2.37;;;20.90;90.00;;;;;;932570;149;27428;-75
2023/09/21 08:03:49;;;;;;;3.20;2.15;;;20.90;89.80;;;;;;925981;150;27247;-75
2023/09/21 08:06:12;;;;;;;3.90;2.98;;;20.90;89.60;;;;;;934699;149;27454;-75
2023/09/21 08:08:39;;;;;;;2.17;1.82;;;20.90;89.60;;;;;;950231;147;27768;-75
2023/09/21 08:11:06;;;;;;;3.02;2.58;;;20.90;89.50;;;;;;938169;149;27415;-76
2023/09/21 08:13:33;;;;;;;2.40;2.20;;;20.90;89.50;;;;;;936242;149;27399;-76
2023/09/21 08:15:59;;;;;;;2.42;1.90;;;20.80;89.50;;;;;;950335;146;27358;-75
2023/09/21 08:18:25;;;;;;;2.85;2.50;;;20.80;89.90;;;;;;935497;149;27416;-76
2023/09/21 08:20:52;;;;;;;2.67;1.90;;;20.80;90.10;;;;;;952979;146;27237;-75
2023/09/21 08:23:18;;;;;;;2.92;2.02;;;20.80;90.20;;;;;;957758;146;27303;-75
2023/09/21 08:25:45;;;;;;;3.60;2.22;;;20.80;90.40;;;;;;956869;146;27312;-75
2023/09/21 08:28:11;;;;;;;2.70;2.12;;;20.80;90.50;;;;;;954296;146;27339;-75
2023/09/21 08:30:38;;;;;;;2.90;2.50;;;20.80;90.40;;;;;;927675;150;27279;-76
2023/09/21 08:33:07;;;;;;;2.42;2.22;;;20.90;90.60;;;;;;954823;146;27347;-75
2023/09/21 08:35:31;;;;;;;2.10;2.00;;;20.90;90.70;;;;;;951064;146;27316;-75
2023/09/21 08:37:59;;;;;;;2.20;2.10;;;20.90;90.70;;;;;;936381;149;27462;-75
2023/09/21 08:40:24;;;;;;;2.25;2.05;;;20.90;90.80;;;;;;952723;146;27402;-75
2023/09/21 08:42:55;;;;;;;2.22;2.02;;;20.90;90.90;;;;;;956664;146;27324;-75
2023/09/21 08:45:21;;;;;;;2.42;2.22;;;20.90;91.10;;;;;;945317;148;27324;-75
2023/09/21 08:47:48;;;;;;;2.05;1.82;;;21.00;91.30;;;;;;956462;146;27342;-77
2023/09/21 08:50:16;;;;;;;2.17;1.98;;;21.10;91.70;;;;;;937315;149;27370;-77
2023/09/21 08:52:48;;;;;;;2.00;1.80;;;21.10;91.80;;;;;;948093;147;27452;-77
2023/09/21 08:55:10;;;;;;;4.05;2.10;;;21.30;91.90;;;;;;954234;148;27250;-78
2023/09/21 08:57:36;;;;;;;2.15;1.95;;;21.30;92.00;;;;;;955569;146;27315;-76
2023/09/21 09:00:06;;;;;;;1.98;1.80;;;21.40;92.00;;;;;;934166;149;27348;-77
2023/09/21 09:02:41;;;;;;;2.77;1.90;;;21.50;91.90;;;;;;936503;149;27362;-77
2023/09/21 09:04:59;;;;;;;2.08;1.98;;;21.60;91.40;;;;;;936187;149;27467;-77
2023/09/21 09:07:25;;;;;;;2.20;1.80;;;21.70;91.40;;;;;;938180;149;27371;-75
2023/09/21 09:09:52;;;;;;;2.08;1.98;;;21.80;90.80;;;;;;938293;149;27529;-77
2023/09/21 09:12:24;;;;;;;1.98;1.82;;;21.90;90.60;;;;;;951157;149;27309;-78
2023/09/21 09:14:54;;;;;;;2.67;2.37;;;22.00;90.60;;;;;;949732;149;27293;-77
2023/09/21 09:17:20;;;;;;;2.67;2.00;;;22.10;90.60;;;;;;951481;147;27372;-77
2023/09/21 09:19:46;;;;;;;2.70;1.87;;;22.20;90.50;;;;;;955229;146;28133;-77
2023/09/21 09:22:16;;;;;;;1.82;1.70;;;22.30;90.30;;;;;;947843;147;27322;-77
2023/09/21 09:24:42;;;;;;;1.87;1.47;;;22.40;90.30;;;;;;937780;149;27300;-76
2023/09/21 09:27:09;;;;;;;3.08;2.15;;;22.50;90.00;;;;;;935736;151;27359;-77
2023/09/21 09:29:35;;;;;;;2.20;2.00;;;22.60;89.10;;;;;;934036;149;27324;-76
2023/09/21 09:32:04;;;;;;;2.15;1.95;;;22.80;88.00;;;;;;929995;149;27295;-77
2023/09/21 09:34:29;;;;;;;2.22;2.00;;;22.90;87.30;;;;;;934119;149;27324;-76
2023/09/21 09:36:55;;;;;;;2.83;2.20;;;23.00;86.30;;;;;;942700;148;27362;-77
2023/09/21 09:39:25;;;;;;;1.87;1.75;;;23.10;85.50;;;;;;948155;147;27293;-77
2023/09/21 09:41:51;;;;;;;1.77;1.67;;;23.20;85.90;;;;;;943835;147;27328;-77
2023/09/21 09:44:23;;;;;;;2.77;2.08;;;23.20;84.50;;;;;;934090;149;27323;-76
2023/09/21 09:46:48;;;;;;;2.30;1.70;;;23.30;83.90;;;;;;932237;150;27472;-78
2023/09/21 09:49:14;;;;;;;1.82;1.72;;;23.30;84.00;;;;;;927339;150;27409;-78
2023/09/21 09:51:44;;;;;;;2.02;1.82;;;23.40;84.30;;;;;;927099;150;27405;-78
2023/09/21 09:54:10;;;;;;;2.02;1.92;;;23.40;84.20;;;;;;942660;149;27427;-75
2023/09/21 09:56:42;;;;;;;1.80;1.70;;;23.40;84.60;;;;;;946679;147;27405;-78
2023/09/21 09:59:11;;;;;;;2.60;2.12;;;23.40;85.10;;;;;;946765;147;27439;-77
2023/09/21 10:01:39;;;;;;;2.70;1.82;;;23.40;84.70;;;;;;951207;147;27321;-78
2023/09/21 10:04:07;;;;;;;2.37;2.17;;;23.40;84.50;;;;;;951036;146;27430;-75
2023/09/21 10:06:36;;;;;;;2.95;2.58;;;23.40;84.70;;;;;;932557;149;27471;-77
2023/09/21 10:09:13;;;;;;;2.33;2.12;;;23.40;85.30;;;;;;935800;149;27312;-77
2023/09/21 10:11:38;;;;;;;2.40;1.82;;;23.50;85.40;;;;;;947915;146;27470;-76
2023/09/21 10:14:04;;;;;;;2.37;2.15;;;23.50;85.50;;;;;;948290;147;27388;-78
2023/09/21 10:16:31;;;;;;;2.08;1.80;;;23.60;85.60;;;;;;933879;149;27405;-77
2023/09/21 10:19:00;;;;;;;2.30;2.15;;;23.60;85.40;;;;;;932727;149;27357;-77
2023/09/21 10:21:24;;;;;;;1.95;1.85;;;23.70;85.60;;;;;;927573;150;27469;-76
2023/09/21 10:24:16;;;;;;;3.05;2.00;;;23.80;85.90;;;;;;941574;149;27392;-77
2023/09/21 10:26:45;;;;;;;6.60;2.25;;;24.00;86.50;;;;;;940991;149;27410;-78
2023/09/21 10:29:12;;;;;;;1.87;1.67;;;24.20;86.30;;;;;;938915;149;27484;-76
2023/09/21 10:31:43;;;;;;;3.55;1.60;;;24.40;85.90;;;;;;949338;147;28427;-77
2023/09/21 10:34:10;;;;;;;3.35;2.05;;;24.60;84.70;;;;;;949826;147;27346;-78
2023/09/21 10:36:36;;;;;;;2.00;1.90;;;24.90;83.40;;;;;;950342;147;27833;-77
2023/09/21 10:39:06;;;;;;;1.75;1.65;;;25.10;82.20;;;;;;925814;150;27279;-78
2023/09/21 10:41:35;;;;;;;2.00;1.90;;;25.40;80.90;;;;;;926488;150;27561;-75
2023/09/21 10:44:06;;;;;;;1.60;1.50;;;25.60;80.20;;;;;;949397;147;27337;-78
2023/09/21 10:46:31;;;;;;;1.87;1.55;;;25.80;79.10;;;;;;949120;147;27287;-75
2023/09/21 10:49:04;;;;;;;1.82;1.72;;;26.10;78.50;;;;;;943735;149;27450;-75
2023/09/21 10:51:33;;;;;;;1.50;1.40;;;26.30;77.70;;;;;;945190;149;27374;-75
2023/09/21 10:54:03;;;;;;;2.42;1.60;;;26.50;76.70;;;;;;944439;148;27333;-78
2023/09/21 10:56:29;;;;;;;2.20;1.70;;;26.70;75.60;;;;;;946320;149;27277;-78
2023/09/21 10:58:56;;;;;;;1.95;1.82;;;26.90;75.00;;;;;;945250;148;27437;-75
2023/09/21 11:01:22;;;;;;;1.75;1.60;;;27.10;74.20;;;;;;944537;148;27480;-78
2023/09/21 11:03:49;;;;;;;2.02;1.90;;;27.20;73.50;;;;;;944350;149;27431;-77
2023/09/21 11:06:19;;;;;;;2.17;1.37;;;27.40;72.60;;;;;;941262;149;27422;-78
2023/09/21 11:08:48;;;;;;;2.58;1.85;;;27.50;71.70;;;;;;916586;152;27436;-75
2023/09/21 11:11:15;;;;;;;1.95;1.50;;;27.60;70.70;;;;;;920214;152;27413;-79
2023/09/21 11:13:44;;;;;;;1.80;1.60;;;27.70;70.30;;;;;;919581;151;27503;-78
2023/09/21 11:16:09;;;;;;;1.65;1.55;;;27.80;69.60;;;;;;920484;151;27328;-78
2023/09/21 11:18:34;;;;;;;1.90;1.50;;;27.80;69.00;;;;;;916050;152;27485;-76
2023/09/21 11:21:03;;;;;;;1.85;1.75;;;27.80;68.50;;;;;;921899;152;28127;-79
2023/09/21 11:23:27;;;;;;;1.90;1.80;;;27.90;68.50;;;;;;935031;149;27299;-79
2023/09/21 11:25:54;;;;;;;2.15;1.60;;;27.90;68.50;;;;;;922729;151;27356;-78
2023/09/21 11:28:22;;;;;;;1.95;1.85;;;27.90;68.40;;;;;;909242;154;27428;-76
2023/09/21 11:30:50;;;;;;;1.80;1.60;;;28.00;68.10;;;;;;925840;151;27361;-78
2023/09/21 11:33:14;;;;;;;1.80;1.70;;;28.00;68.00;;;;;;930421;148;27447;-78
2023/09/21 11:35:40;;;;;;;1.87;1.60;;;28.10;67.70;;;;;;922491;152;27316;-78
2023/09/21 11:38:08;;;;;;;1.90;1.80;;;28.00;67.30;;;;;;922998;150;27427;-77
2023/09/21 11:40:34;;;;;;;1.75;1.65;;;28.10;67.00;;;;;;934128;150;27327;-76
2023/09/21 11:43:00;;;;;;;1.87;1.77;;;28.00;66.50;;;;;;919692;151;27391;-78
2023/09/21 11:45:27;;;;;;;2.83;1.60;;;27.90;66.10;;;;;;920812;151;27342;-78
2023/09/21 11:47:54;;;;;;;1.95;1.77;;;27.90;66.10;;;;;;932107;149;27294;-78
2023/09/21 11:50:20;;;;;;;2.27;2.00;;;27.80;66.00;;;;;;930636;149;27264;-77
2023/09/21 11:52:47;;;;;;;2.08;1.90;;;27.70;65.90;;;;;;930494;150;27460;-75
2023/09/21 11:55:13;;;;;;;1.80;1.70;;;27.50;65.90;;;;;;910924;154;27779;-78
2023/09/21 11:57:42;;;;;;;1.77;1.55;;;27.50;66.20;;;;;;930682;150;27366;-78
2023/09/21 12:00:14;;;;;;;1.65;1.55;;;27.40;66.20;;;;;;922315;152;27646;-77
2023/09/21 12:02:37;;;;;;;2.33;2.00;;;27.30;66.30;;;;;;915974;152;27499;-78
2023/09/21 12:05:08;;;;;;;1.55;1.45;;;27.20;66.10;;;;;;931042;149;27767;-76
2023/09/21 12:07:29;;;;;;;1.92;1.82;;;27.10;65.80;;;;;;926053;151;27465;-79
2023/09/21 12:09:56;;;;;;;1.70;1.60;;;27.00;65.60;;;;;;944694;149;27456;-77
2023/09/21 12:12:22;;;;;;;1.50;1.40;;;26.90;65.60;;;;;;944583;149;27345;-78
2023/09/21 12:14:49;;;;;;;1.70;1.60;;;26.80;65.90;;;;;;943835;149;27340;-78
2023/09/21 12:17:19;;;;;;;1.70;1.60;;;26.70;66.10;;;;;;929155;151;27358;-76
2023/09/21 12:19:42;;;;;;;2.15;1.75;;;26.60;66.40;;;;;;924423;152;27274;-76
2023/09/21 12:22:11;;;;;;;1.80;1.52;;;26.50;66.50;;;;;;946363;149;27785;-76
2023/09/21 12:24:35;;;;;;;1.40;1.30;;;26.50;66.70;;;;;;928628;151;27431;-76
2023/09/21 12:27:03;;;;;;;4.03;1.47;;;26.50;67.00;;;;;;927521;151;27431;-76
2023/09/21 12:29:28;;;;;;;3.50;1.87;;;26.50;67.10;;;;;;927587;154;27389;-76
2023/09/21 12:31:56;;;;;;;2.20;1.77;;;26.50;67.30;;;;;;930047;152;27323;-76
2023/09/21 12:34:21;;;;;;;1.77;1.67;;;26.60;67.50;;;;;;922701;151;27440;-76
2023/09/21 12:36:49;;;;;;;2.27;1.98;;;26.70;67.70;;;;;;932477;150;27355;-76
2023/09/21 12:39:14;;;;;;;2.75;1.60;;;26.80;67.90;;;;;;932134;152;27344;-76
2023/09/21 12:41:43;;;;;;;1.50;1.40;;;26.90;68.10;;;;;;927678;151;27354;-76
2023/09/21 12:44:07;;;;;;;1.75;1.60;;;27.10;67.90;;;;;;944401;148;27329;-76
2023/09/21 12:46:36;;;;;;;1.57;1.47;;;27.20;67.70;;;;;;941283;149;27387;-76
2023/09/21 12:49:01;;;;;;;1.67;1.57;;;27.40;67.50;;;;;;944497;149;27289;-76